sensor_id;sensor_type;location;lat;lon;timestamp;temperature;humidity
69162;DHT22;56269;51.738;21.652;2022-09-23T00:01:31;6.67;99.99
69162;DHT22;56269;51.738;21.652;2022-09-23T00:03:58;6.60;99.99
69162;DHT22;56269;51.738;21.652;2022-09-23T00:06:24;6.54;99.99
69162;DHT22;56269;51.738;21.652;2022-09-23T00:08:51;6.54;99.99
69162;DHT22;56269;51.738;21.652;2022-09-23T00:11:22;6.51;99.99
69162;DHT22;56269;51.738;21.652;2022-09-23T00:13:51;6.58;99.99
69162;DHT22;56269;51.738;21.652;2022-09-23T00:16:20;6.54;99.99
69162;DHT22;56269;51.738;21.652;2022-09-23T00:18:46;6.51;99.99
69162;DHT22;56269;51.738;21.652;2022-09-23T00:21:14;6.50;99.99
69162;DHT22;56269;51.738;21.652;2022-09-23T00:23:42;6.38;99.99
69162;DHT22;56269;51.738;21.652;2022-09-23T00:26:10;6.37;99.99
69162;DHT22;56269;51.738;21.652;2022-09-23T00:28:37;6.34;99.99
69162;DHT22;56269;51.738;21.652;2022-09-23T00:31:06;6.42;99.99
69162;DHT22;56269;51.738;21.652;2022-09-23T00:33:32;6.48;99.99
69162;DHT22;56269;51.738;21.652;2022-09-23T00:36:03;6.55;99.99
69162;DHT22;56269;51.738;21.652;2022-09-23T00:38:30;6.63;99.99
69162;DHT22;56269;51.738;21.652;2022-09-23T00:40:56;6.64;99.99
69162;DHT22;56269;51.738;21.652;2022-09-23T00:46:09;6.85;99.99
69162;DHT22;56269;51.738;21.652;2022-09-23T00:48:38;6.87;99.99
69162;DHT22;56269;51.738;21.652;2022-09-23T00:51:10;6.87;99.99
69162;DHT22;56269;51.738;21.652;2022-09-23T00:53:37;6.92;99.99
69162;DHT22;56269;51.738;21.652;2022-09-23T00:56:06;6.95;99.99
69162;DHT22;56269;51.738;21.652;2022-09-23T00:58:36;6.99;99.99
69162;DHT22;56269;51.738;21.652;2022-09-23T01:01:03;6.99;99.99
69162;DHT22;56269;51.738;21.652;2022-09-23T01:03:30;7.05;99.99
69162;DHT22;56269;51.738;21.652;2022-09-23T01:05:56;7.03;99.99
69162;DHT22;56269;51.738;21.652;2022-09-23T01:08:23;7.03;99.99
69162;DHT22;56269;51.738;21.652;2022-09-23T01:13:52;7.05;99.99
69162;DHT22;56269;51.738;21.652;2022-09-23T01:21:43;7.06;99.99
69162;DHT22;56269;51.738;21.652;2022-09-23T01:40:10;7.01;99.99
69162;DHT22;56269;51.738;21.652;2022-09-23T01:42:49;7.01;99.99
69162;DHT22;56269;51.738;21.652;2022-09-23T01:45:25;6.96;99.99
69162;DHT22;56269;51.738;21.652;2022-09-23T01:47:58;6.96;99.99
69162;DHT22;56269;51.738;21.652;2022-09-23T01:50:35;6.93;99.99
69162;DHT22;56269;51.738;21.652;2022-09-23T01:53:44;6.91;99.99
69162;DHT22;56269;51.738;21.652;2022-09-23T01:56:19;6.89;99.99
69162;DHT22;56269;51.738;21.652;2022-09-23T01:59:10;6.85;99.99
69162;DHT22;56269;51.738;21.652;2022-09-23T02:01:47;6.80;99.99
69162;DHT22;56269;51.738;21.652;2022-09-23T02:04:26;6.77;99.99
69162;DHT22;56269;51.738;21.652;2022-09-23T02:07:02;6.67;99.99
69162;DHT22;56269;51.738;21.652;2022-09-23T02:09:34;6.55;99.99
69162;DHT22;56269;51.738;21.652;2022-09-23T02:12:04;6.52;99.99
69162;DHT22;56269;51.738;21.652;2022-09-23T02:15:03;6.48;99.99
69162;DHT22;56269;51.738;21.652;2022-09-23T02:17:36;6.47;99.99
69162;DHT22;56269;51.738;21.652;2022-09-23T02:20:06;6.41;99.99
69162;DHT22;56269;51.738;21.652;2022-09-23T02:22:39;6.40;99.99
69162;DHT22;56269;51.738;21.652;2022-09-23T02:25:07;6.31;99.99
69162;DHT22;56269;51.738;21.652;2022-09-23T02:27:59;6.21;99.99
69162;DHT22;56269;51.738;21.652;2022-09-23T02:30:37;6.09;99.99
69162;DHT22;56269;51.738;21.652;2022-09-23T02:36:07;5.82;99.99
69162;DHT22;56269;51.738;21.652;2022-09-23T02:39:17;5.66;99.99
69162;DHT22;56269;51.738;21.652;2022-09-23T02:41:29;5.55;99.99
69162;DHT22;56269;51.738;21.652;2022-09-23T02:44:11;5.54;99.99
69162;DHT22;56269;51.738;21.652;2022-09-23T02:46:39;5.44;99.99
69162;DHT22;56269;51.738;21.652;2022-09-23T02:49:13;5.30;99.99
69162;DHT22;56269;51.738;21.652;2022-09-23T02:51:40;5.24;99.99
69162;DHT22;56269;51.738;21.652;2022-09-23T02:54:09;5.14;99.99
69162;DHT22;56269;51.738;21.652;2022-09-23T02:56:37;5.08;99.99
69162;DHT22;56269;51.738;21.652;2022-09-23T02:59:04;5.04;99.99
69162;DHT22;56269;51.738;21.652;2022-09-23T03:02:22;4.94;99.99
69162;DHT22;56269;51.738;21.652;2022-09-23T03:09:42;4.97;99.99
69162;DHT22;56269;51.738;21.652;2022-09-23T03:15:41;5.28;99.99
69162;DHT22;56269;51.738;21.652;2022-09-23T03:18:27;5.35;99.99
69162;DHT22;56269;51.738;21.652;2022-09-23T03:21:10;5.44;99.99
69162;DHT22;56269;51.738;21.652;2022-09-23T03:23:39;5.44;99.99
69162;DHT22;56269;51.738;21.652;2022-09-23T03:26:11;5.47;99.99
69162;DHT22;56269;51.738;21.652;2022-09-23T03:28:39;5.47;99.99
69162;DHT22;56269;51.738;21.652;2022-09-23T03:31:09;5.42;99.99
69162;DHT22;56269;51.738;21.652;2022-09-23T03:33:37;5.39;99.99
69162;DHT22;56269;51.738;21.652;2022-09-23T03:36:08;5.41;99.99
69162;DHT22;56269;51.738;21.652;2022-09-23T03:38:59;5.38;99.99
69162;DHT22;56269;51.738;21.652;2022-09-23T03:41:30;5.39;99.99
69162;DHT22;56269;51.738;21.652;2022-09-23T03:43:58;5.39;99.99
69162;DHT22;56269;51.738;21.652;2022-09-23T03:46:25;5.38;99.99
69162;DHT22;56269;51.738;21.652;2022-09-23T03:48:59;5.41;99.99
69162;DHT22;56269;51.738;21.652;2022-09-23T03:51:27;5.48;99.99
69162;DHT22;56269;51.738;21.652;2022-09-23T03:53:53;5.42;99.99
69162;DHT22;56269;51.738;21.652;2022-09-23T03:56:19;5.41;99.99
69162;DHT22;56269;51.738;21.652;2022-09-23T03:58:45;5.38;99.99
69162;DHT22;56269;51.738;21.652;2022-09-23T04:01:11;5.38;99.99
69162;DHT22;56269;51.738;21.652;2022-09-23T04:03:39;5.37;99.99
69162;DHT22;56269;51.738;21.652;2022-09-23T04:06:06;5.39;99.99
69162;DHT22;56269;51.738;21.652;2022-09-23T04:08:32;5.41;99.99
69162;DHT22;56269;51.738;21.652;2022-09-23T04:11:02;5.42;99.99
69162;DHT22;56269;51.738;21.652;2022-09-23T04:13:30;5.47;99.99
69162;DHT22;56269;51.738;21.652;2022-09-23T04:15:56;5.48;99.99
69162;DHT22;56269;51.738;21.652;2022-09-23T04:18:22;5.52;99.99
69162;DHT22;56269;51.738;21.652;2022-09-23T04:20:48;5.55;99.99
69162;DHT22;56269;51.738;21.652;2022-09-23T04:23:14;5.60;99.99
69162;DHT22;56269;51.738;21.652;2022-09-23T04:25:47;5.60;99.99
69162;DHT22;56269;51.738;21.652;2022-09-23T04:28:13;5.65;99.99
69162;DHT22;56269;51.738;21.652;2022-09-23T04:30:42;5.69;99.99
69162;DHT22;56269;51.738;21.652;2022-09-23T04:33:09;5.72;99.99
69162;DHT22;56269;51.738;21.652;2022-09-23T04:35:36;5.75;99.99
69162;DHT22;56269;51.738;21.652;2022-09-23T04:38:05;5.76;99.99
69162;DHT22;56269;51.738;21.652;2022-09-23T04:40:35;5.76;99.99
69162;DHT22;56269;51.738;21.652;2022-09-23T04:43:01;5.80;99.99
69162;DHT22;56269;51.738;21.652;2022-09-23T04:45:27;5.85;99.99
69162;DHT22;56269;51.738;21.652;2022-09-23T04:47:55;5.86;99.99
69162;DHT22;56269;51.738;21.652;2022-09-23T04:50:24;5.89;99.99
69162;DHT22;56269;51.738;21.652;2022-09-23T04:52:51;5.92;99.99
69162;DHT22;56269;51.738;21.652;2022-09-23T04:55:17;5.96;99.99
69162;DHT22;56269;51.738;21.652;2022-09-23T04:57:43;6.00;99.99
69162;DHT22;56269;51.738;21.652;2022-09-23T05:00:10;6.03;99.99
69162;DHT22;56269;51.738;21.652;2022-09-23T05:02:47;6.05;99.99
69162;DHT22;56269;51.738;21.652;2022-09-23T05:05:14;6.17;99.99
69162;DHT22;56269;51.738;21.652;2022-09-23T05:07:46;6.16;99.99
69162;DHT22;56269;51.738;21.652;2022-09-23T05:10:13;6.20;99.99
69162;DHT22;56269;51.738;21.652;2022-09-23T05:12:40;6.29;99.99
69162;DHT22;56269;51.738;21.652;2022-09-23T05:15:06;6.30;99.99
69162;DHT22;56269;51.738;21.652;2022-09-23T05:17:32;6.33;99.99
69162;DHT22;56269;51.738;21.652;2022-09-23T05:19:58;6.40;99.99
69162;DHT22;56269;51.738;21.652;2022-09-23T05:22:25;6.38;99.99
69162;DHT22;56269;51.738;21.652;2022-09-23T05:24:52;6.37;99.99
69162;DHT22;56269;51.738;21.652;2022-09-23T05:27:19;6.42;99.99
69162;DHT22;56269;51.738;21.652;2022-09-23T05:29:45;6.45;99.99
69162;DHT22;56269;51.738;21.652;2022-09-23T05:32:12;6.48;99.99
69162;DHT22;56269;51.738;21.652;2022-09-23T05:34:39;6.50;99.99
69162;DHT22;56269;51.738;21.652;2022-09-23T05:37:05;6.51;99.99
69162;DHT22;56269;51.738;21.652;2022-09-23T05:39:31;6.58;99.99
69162;DHT22;56269;51.738;21.652;2022-09-23T05:41:57;6.60;99.99
69162;DHT22;56269;51.738;21.652;2022-09-23T05:44:25;6.58;99.99
69162;DHT22;56269;51.738;21.652;2022-09-23T05:46:51;6.61;99.99
69162;DHT22;56269;51.738;21.652;2022-09-23T05:49:17;6.61;99.99
69162;DHT22;56269;51.738;21.652;2022-09-23T05:51:43;6.68;99.99
69162;DHT22;56269;51.738;21.652;2022-09-23T05:54:09;6.70;99.99
69162;DHT22;56269;51.738;21.652;2022-09-23T05:56:36;6.72;99.99
69162;DHT22;56269;51.738;21.652;2022-09-23T05:59:03;6.80;99.99
69162;DHT22;56269;51.738;21.652;2022-09-23T06:01:32;6.87;99.99
69162;DHT22;56269;51.738;21.652;2022-09-23T06:04:00;7.24;99.99
69162;DHT22;56269;51.738;21.652;2022-09-23T06:06:32;7.62;99.99
69162;DHT22;56269;51.738;21.652;2022-09-23T06:08:58;7.73;99.99
69162;DHT22;56269;51.738;21.652;2022-09-23T06:11:26;7.53;99.99
69162;DHT22;56269;51.738;21.652;2022-09-23T06:13:56;7.69;99.99
69162;DHT22;56269;51.738;21.652;2022-09-23T06:16:27;7.59;99.99
69162;DHT22;56269;51.738;21.652;2022-09-23T06:18:53;7.62;99.99
69162;DHT22;56269;51.738;21.652;2022-09-23T06:21:19;7.60;99.99
69162;DHT22;56269;51.738;21.652;2022-09-23T06:23:45;7.81;99.90
69162;DHT22;56269;51.738;21.652;2022-09-23T06:26:15;7.63;99.99
69162;DHT22;56269;51.738;21.652;2022-09-23T06:28:42;7.64;99.99
69162;DHT22;56269;51.738;21.652;2022-09-23T06:31:14;7.62;99.99
69162;DHT22;56269;51.738;21.652;2022-09-23T06:33:43;7.84;99.99
69162;DHT22;56269;51.738;21.652;2022-09-23T06:36:10;7.83;99.99
69162;DHT22;56269;51.738;21.652;2022-09-23T06:38:38;8.02;99.99
69162;DHT22;56269;51.738;21.652;2022-09-23T06:41:05;8.34;99.81
69162;DHT22;56269;51.738;21.652;2022-09-23T06:43:32;8.32;98.83
69162;DHT22;56269;51.738;21.652;2022-09-23T06:45:59;8.41;98.46
69162;DHT22;56269;51.738;21.652;2022-09-23T06:48:26;8.39;98.46
69162;DHT22;56269;51.738;21.652;2022-09-23T06:50:54;8.28;99.49
69162;DHT22;56269;51.738;21.652;2022-09-23T06:53:22;8.35;99.24
69162;DHT22;56269;51.738;21.652;2022-09-23T06:56:03;8.60;98.56
69162;DHT22;56269;51.738;21.652;2022-09-23T06:58:31;8.87;97.51
69162;DHT22;56269;51.738;21.652;2022-09-23T07:01:08;8.88;98.18
69162;DHT22;56269;51.738;21.652;2022-09-23T07:03:35;9.00;97.17
69162;DHT22;56269;51.738;21.652;2022-09-23T07:06:03;8.96;96.97
69162;DHT22;56269;51.738;21.652;2022-09-23T07:08:29;8.99;97.28
69162;DHT22;56269;51.738;21.652;2022-09-23T07:10:57;9.07;96.32
69162;DHT22;56269;51.738;21.652;2022-09-23T07:13:24;9.17;95.53
69162;DHT22;56269;51.738;21.652;2022-09-23T07:15:52;9.47;94.29
69162;DHT22;56269;51.738;21.652;2022-09-23T07:18:19;9.48;93.89
69162;DHT22;56269;51.738;21.652;2022-09-23T07:20:49;9.57;95.15
69162;DHT22;56269;51.738;21.652;2022-09-23T07:23:15;9.55;93.38
69162;DHT22;56269;51.738;21.652;2022-09-23T07:25:43;9.67;94.15
69162;DHT22;56269;51.738;21.652;2022-09-23T07:28:11;9.92;91.83
69162;DHT22;56269;51.738;21.652;2022-09-23T07:30:39;10.17;90.97
69162;DHT22;56269;51.738;21.652;2022-09-23T07:33:06;10.64;90.48
69162;DHT22;56269;51.738;21.652;2022-09-23T07:35:32;10.90;89.28
69162;DHT22;56269;51.738;21.652;2022-09-23T07:37:59;10.88;87.65
69162;DHT22;56269;51.738;21.652;2022-09-23T07:40:25;11.40;86.94
69162;DHT22;56269;51.738;21.652;2022-09-23T07:42:52;11.26;87.34
69162;DHT22;56269;51.738;21.652;2022-09-23T07:45:18;11.52;86.94
69162;DHT22;56269;51.738;21.652;2022-09-23T07:47:44;12.41;85.86
69162;DHT22;56269;51.738;21.652;2022-09-23T07:50:10;12.21;84.25
69162;DHT22;56269;51.738;21.652;2022-09-23T07:52:37;12.55;83.66
69162;DHT22;56269;51.738;21.652;2022-09-23T07:55:04;12.40;82.87
69162;DHT22;56269;51.738;21.652;2022-09-23T07:57:31;12.17;84.23
69162;DHT22;56269;51.738;21.652;2022-09-23T07:59:57;11.82;83.74
69162;DHT22;56269;51.738;21.652;2022-09-23T08:02:25;12.14;84.46
69162;DHT22;56269;51.738;21.652;2022-09-23T08:04:51;12.17;83.71
69162;DHT22;56269;51.738;21.652;2022-09-23T08:07:18;12.65;82.45
69162;DHT22;56269;51.738;21.652;2022-09-23T08:09:44;13.16;81.67
69162;DHT22;56269;51.738;21.652;2022-09-23T08:12:14;13.02;81.28
69162;DHT22;56269;51.738;21.652;2022-09-23T08:14:40;12.45;82.30
69162;DHT22;56269;51.738;21.652;2022-09-23T08:17:07;12.49;81.17
69162;DHT22;56269;51.738;21.652;2022-09-23T08:19:33;12.40;81.50
69162;DHT22;56269;51.738;21.652;2022-09-23T08:21:59;12.71;80.30
69162;DHT22;56269;51.738;21.652;2022-09-23T08:24:25;12.69;79.90
69162;DHT22;56269;51.738;21.652;2022-09-23T08:26:53;12.66;79.60
69162;DHT22;56269;51.738;21.652;2022-09-23T08:29:21;13.36;78.65
69162;DHT22;56269;51.738;21.652;2022-09-23T08:31:48;13.30;78.79
69162;DHT22;56269;51.738;21.652;2022-09-23T08:34:19;13.09;78.61
69162;DHT22;56269;51.738;21.652;2022-09-23T08:36:45;13.12;77.02
69162;DHT22;56269;51.738;21.652;2022-09-23T08:39:16;13.66;75.29
69162;DHT22;56269;51.738;21.652;2022-09-23T08:44:45;12.64;80.08
69162;DHT22;56269;51.738;21.652;2022-09-23T08:55:13;12.48;81.04
69162;DHT22;56269;51.738;21.652;2022-09-23T09:00:42;13.35;75.49
69162;DHT22;56269;51.738;21.652;2022-09-23T09:03:38;12.75;74.80
69162;DHT22;56269;51.738;21.652;2022-09-23T09:06:21;12.34;76.75
69162;DHT22;56269;51.738;21.652;2022-09-23T09:08:56;12.71;75.74
69162;DHT22;56269;51.738;21.652;2022-09-23T09:11:30;13.39;73.51
69162;DHT22;56269;51.738;21.652;2022-09-23T09:14:17;13.33;72.19
69162;DHT22;56269;51.738;21.652;2022-09-23T09:16:52;14.04;69.64
69162;DHT22;56269;51.738;21.652;2022-09-23T09:19:35;14.40;69.49
69162;DHT22;56269;51.738;21.652;2022-09-23T09:22:04;13.61;67.55
69162;DHT22;56269;51.738;21.652;2022-09-23T09:24:34;13.66;68.80
69162;DHT22;56269;51.738;21.652;2022-09-23T09:27:09;13.54;68.08
69162;DHT22;56269;51.738;21.652;2022-09-23T09:29:39;13.57;66.55
69162;DHT22;56269;51.738;21.652;2022-09-23T09:32:24;13.92;67.18
69162;DHT22;56269;51.738;21.652;2022-09-23T09:34:59;14.07;64.28
69162;DHT22;56269;51.738;21.652;2022-09-23T09:37:34;14.62;65.16
69162;DHT22;56269;51.738;21.652;2022-09-23T09:40:02;14.24;62.27
69162;DHT22;56269;51.738;21.652;2022-09-23T09:42:39;13.24;64.15
69162;DHT22;56269;51.738;21.652;2022-09-23T09:50:15;14.14;66.49
69162;DHT22;56269;51.738;21.652;2022-09-23T09:52:47;14.60;66.09
69162;DHT22;56269;51.738;21.652;2022-09-23T09:55:16;14.96;66.31
69162;DHT22;56269;51.738;21.652;2022-09-23T09:57:55;15.17;65.44
69162;DHT22;56269;51.738;21.652;2022-09-23T10:08:33;14.87;63.33
69162;DHT22;56269;51.738;21.652;2022-09-23T10:11:13;15.32;62.97
69162;DHT22;56269;51.738;21.652;2022-09-23T10:13:41;15.44;63.85
69162;DHT22;56269;51.738;21.652;2022-09-23T10:16:07;15.77;63.01
69162;DHT22;56269;51.738;21.652;2022-09-23T10:18:58;16.02;62.12
69162;DHT22;56269;51.738;21.652;2022-09-23T10:21:24;15.89;58.07
69162;DHT22;56269;51.738;21.652;2022-09-23T10:23:52;15.26;60.84
69162;DHT22;56269;51.738;21.652;2022-09-23T10:26:28;14.99;59.14
69162;DHT22;56269;51.738;21.652;2022-09-23T10:29:00;14.35;59.72
69162;DHT22;56269;51.738;21.652;2022-09-23T10:31:28;13.81;61.94
69162;DHT22;56269;51.738;21.652;2022-09-23T10:33:59;13.47;63.53
69162;DHT22;56269;51.738;21.652;2022-09-23T10:36:30;13.85;64.50
69162;DHT22;56269;51.738;21.652;2022-09-23T10:39:02;14.87;64.68
69162;DHT22;56269;51.738;21.652;2022-09-23T10:45:25;15.08;61.76
69162;DHT22;56269;51.738;21.652;2022-09-23T10:50:52;15.38;59.10
69162;DHT22;56269;51.738;21.652;2022-09-23T10:56:16;14.28;60.73
69162;DHT22;56269;51.738;21.652;2022-09-23T11:10:20;15.75;60.04
69162;DHT22;56269;51.738;21.652;2022-09-23T11:16:17;15.11;58.24
69162;DHT22;56269;51.738;21.652;2022-09-23T11:21:56;14.83;62.24
69162;DHT22;56269;51.738;21.652;2022-09-23T11:30:20;14.46;60.06
69162;DHT22;56269;51.738;21.652;2022-09-23T11:33:11;14.12;64.22
69162;DHT22;56269;51.738;21.652;2022-09-23T11:35:48;14.14;63.39
69162;DHT22;56269;51.738;21.652;2022-09-23T11:38:22;14.86;60.98
69162;DHT22;56269;51.738;21.652;2022-09-23T11:40:59;15.47;58.73
69162;DHT22;56269;51.738;21.652;2022-09-23T11:43:29;15.91;58.00
69162;DHT22;56269;51.738;21.652;2022-09-23T11:46:07;15.66;57.62
69162;DHT22;56269;51.738;21.652;2022-09-23T11:48:47;16.02;56.64
69162;DHT22;56269;51.738;21.652;2022-09-23T11:51:20;16.09;53.75
69162;DHT22;56269;51.738;21.652;2022-09-23T11:53:50;16.84;54.60
69162;DHT22;56269;51.738;21.652;2022-09-23T11:56:31;16.80;54.18
69162;DHT22;56269;51.738;21.652;2022-09-23T12:01:44;15.35;59.73
69162;DHT22;56269;51.738;21.652;2022-09-23T12:04:36;15.24;56.92
69162;DHT22;56269;51.738;21.652;2022-09-23T12:09:40;15.23;56.33
69162;DHT22;56269;51.738;21.652;2022-09-23T12:13:01;15.30;58.68
69162;DHT22;56269;51.738;21.652;2022-09-23T12:20:55;15.27;56.79
69162;DHT22;56269;51.738;21.652;2022-09-23T12:26:16;15.62;56.14
69162;DHT22;56269;51.738;21.652;2022-09-23T12:28:46;15.65;57.28
69162;DHT22;56269;51.738;21.652;2022-09-23T12:31:18;16.13;56.06
69162;DHT22;56269;51.738;21.652;2022-09-23T12:33:49;15.77;56.41
69162;DHT22;56269;51.738;21.652;2022-09-23T12:36:25;15.93;55.79
69162;DHT22;56269;51.738;21.652;2022-09-23T12:38:57;16.08;54.75
69162;DHT22;56269;51.738;21.652;2022-09-23T12:41:36;16.14;56.92
69162;DHT22;56269;51.738;21.652;2022-09-23T12:46:36;15.63;57.36
69162;DHT22;56269;51.738;21.652;2022-09-23T12:49:04;15.58;56.16
69162;DHT22;56269;51.738;21.652;2022-09-23T12:51:35;16.14;59.31
69162;DHT22;56269;51.738;21.652;2022-09-23T12:59:08;15.95;56.88
69162;DHT22;56269;51.738;21.652;2022-09-23T13:01:37;15.26;57.86
69162;DHT22;56269;51.738;21.652;2022-09-23T13:04:03;15.01;59.62
69162;DHT22;56269;51.738;21.652;2022-09-23T13:06:57;14.96;58.60
69162;DHT22;56269;51.738;21.652;2022-09-23T13:09:30;15.06;59.56
69162;DHT22;56269;51.738;21.652;2022-09-23T13:12:02;15.07;60.68
69162;DHT22;56269;51.738;21.652;2022-09-23T13:14:31;14.33;60.66
69162;DHT22;56269;51.738;21.652;2022-09-23T13:16:58;14.09;61.22
69162;DHT22;56269;51.738;21.652;2022-09-23T13:22:10;14.25;63.36
69162;DHT22;56269;51.738;21.652;2022-09-23T13:25:00;13.88;62.89
69162;DHT22;56269;51.738;21.652;2022-09-23T13:27:30;13.64;64.92
69162;DHT22;56269;51.738;21.652;2022-09-23T13:30:17;13.37;64.78
69162;DHT22;56269;51.738;21.652;2022-09-23T13:32:46;13.15;65.08
69162;DHT22;56269;51.738;21.652;2022-09-23T13:35:14;13.10;65.66
69162;DHT22;56269;51.738;21.652;2022-09-23T13:37:43;13.88;65.07
69162;DHT22;56269;51.738;21.652;2022-09-23T13:43:13;14.77;62.36
69162;DHT22;56269;51.738;21.652;2022-09-23T13:45:42;15.06;62.04
69162;DHT22;56269;51.738;21.652;2022-09-23T13:48:12;15.51;61.54
69162;DHT22;56269;51.738;21.652;2022-09-23T13:50:48;15.81;57.55
69162;DHT22;56269;51.738;21.652;2022-09-23T13:53:35;15.66;57.49
69162;DHT22;56269;51.738;21.652;2022-09-23T13:56:10;15.45;58.18
69162;DHT22;56269;51.738;21.652;2022-09-23T13:58:38;15.77;58.08
69162;DHT22;56269;51.738;21.652;2022-09-23T14:01:30;15.32;58.47
69162;DHT22;56269;51.738;21.652;2022-09-23T14:03:57;15.51;55.54
69162;DHT22;56269;51.738;21.652;2022-09-23T14:06:24;15.42;55.18
69162;DHT22;56269;51.738;21.652;2022-09-23T14:08:54;15.27;56.53
69162;DHT22;56269;51.738;21.652;2022-09-23T14:11:29;15.44;57.86
69162;DHT22;56269;51.738;21.652;2022-09-23T14:13:57;15.40;58.07
69162;DHT22;56269;51.738;21.652;2022-09-23T14:16:26;15.51;56.71
69162;DHT22;56269;51.738;21.652;2022-09-23T14:18:58;15.11;57.65
69162;DHT22;56269;51.738;21.652;2022-09-23T14:21:34;14.96;59.40
69162;DHT22;56269;51.738;21.652;2022-09-23T14:26:55;14.18;60.07
69162;DHT22;56269;51.738;21.652;2022-09-23T14:29:27;14.19;62.10
69162;DHT22;56269;51.738;21.652;2022-09-23T14:31:57;14.46;61.00
69162;DHT22;56269;51.738;21.652;2022-09-23T14:34:44;14.11;61.15
69162;DHT22;56269;51.738;21.652;2022-09-23T14:40:17;14.40;62.39
69162;DHT22;56269;51.738;21.652;2022-09-23T14:42:49;14.56;62.17
69162;DHT22;56269;51.738;21.652;2022-09-23T14:45:24;14.80;60.31
69162;DHT22;56269;51.738;21.652;2022-09-23T14:47:56;14.73;61.46
69162;DHT22;56269;51.738;21.652;2022-09-23T14:50:26;14.80;61.06
69162;DHT22;56269;51.738;21.652;2022-09-23T14:55:52;14.60;60.92
69162;DHT22;56269;51.738;21.652;2022-09-23T14:58:25;14.94;61.91
69162;DHT22;56269;51.738;21.652;2022-09-23T15:00:59;14.76;60.59
69162;DHT22;56269;51.738;21.652;2022-09-23T15:03:26;14.59;59.79
69162;DHT22;56269;51.738;21.652;2022-09-23T15:06:03;14.48;61.35
69162;DHT22;56269;51.738;21.652;2022-09-23T15:08:33;14.40;62.51
69162;DHT22;56269;51.738;21.652;2022-09-23T15:11:03;14.08;61.75
69162;DHT22;56269;51.738;21.652;2022-09-23T15:13:32;13.60;64.05
69162;DHT22;56269;51.738;21.652;2022-09-23T15:16:01;13.35;65.03
69162;DHT22;56269;51.738;21.652;2022-09-23T15:18:32;13.16;65.49
69162;DHT22;56269;51.738;21.652;2022-09-23T15:21:13;12.89;67.02
69162;DHT22;56269;51.738;21.652;2022-09-23T15:26:16;12.46;69.38
69162;DHT22;56269;51.738;21.652;2022-09-23T15:28:43;12.31;69.66
69162;DHT22;56269;51.738;21.652;2022-09-23T15:31:14;12.10;72.02
69162;DHT22;56269;51.738;21.652;2022-09-23T15:33:43;11.93;73.20
69162;DHT22;56269;51.738;21.652;2022-09-23T15:36:23;11.82;72.50
69162;DHT22;56269;51.738;21.652;2022-09-23T15:38:54;11.67;74.60
69162;DHT22;56269;51.738;21.652;2022-09-23T15:41:22;11.59;75.36
69162;DHT22;56269;51.738;21.652;2022-09-23T15:43:50;11.51;76.94
69162;DHT22;56269;51.738;21.652;2022-09-23T15:49:14;11.15;77.85
69162;DHT22;56269;51.738;21.652;2022-09-23T15:51:42;11.02;79.50
69162;DHT22;56269;51.738;21.652;2022-09-23T15:54:11;10.84;80.40
69162;DHT22;56269;51.738;21.652;2022-09-23T15:56:38;10.75;81.02
69162;DHT22;56269;51.738;21.652;2022-09-23T15:59:04;10.72;81.11
69162;DHT22;56269;51.738;21.652;2022-09-23T16:01:33;10.56;81.47
69162;DHT22;56269;51.738;21.652;2022-09-23T16:04:01;10.33;84.37
69162;DHT22;56269;51.738;21.652;2022-09-23T16:06:30;10.16;86.10
69162;DHT22;56269;51.738;21.652;2022-09-23T16:08:56;10.00;86.89
69162;DHT22;56269;51.738;21.652;2022-09-23T16:11:24;9.82;85.71
69162;DHT22;56269;51.738;21.652;2022-09-23T16:13:52;9.71;88.23
69162;DHT22;56269;51.738;21.652;2022-09-23T16:16:18;9.55;87.85
69162;DHT22;56269;51.738;21.652;2022-09-23T16:18:46;9.38;89.89
69162;DHT22;56269;51.738;21.652;2022-09-23T16:21:18;9.23;88.94
69162;DHT22;56269;51.738;21.652;2022-09-23T16:23:46;9.18;87.58
69162;DHT22;56269;51.738;21.652;2022-09-23T16:26:22;9.10;88.16
69162;DHT22;56269;51.738;21.652;2022-09-23T16:28:51;9.03;87.27
69162;DHT22;56269;51.738;21.652;2022-09-23T16:31:18;8.99;87.28
69162;DHT22;56269;51.738;21.652;2022-09-23T16:33:45;8.84;89.23
69162;DHT22;56269;51.738;21.652;2022-09-23T16:36:22;8.69;91.60
69162;DHT22;56269;51.738;21.652;2022-09-23T16:38:50;8.48;92.39
69162;DHT22;56269;51.738;21.652;2022-09-23T16:41:16;8.34;92.92
69162;DHT22;56269;51.738;21.652;2022-09-23T16:43:42;8.15;93.55
69162;DHT22;56269;51.738;21.652;2022-09-23T16:46:12;8.05;93.56
69162;DHT22;56269;51.738;21.652;2022-09-23T16:48:39;7.97;93.36
69162;DHT22;56269;51.738;21.652;2022-09-23T16:51:14;7.94;94.14
69162;DHT22;56269;51.738;21.652;2022-09-23T16:53:41;7.93;93.09
69162;DHT22;56269;51.738;21.652;2022-09-23T16:56:08;7.93;92.05
69162;DHT22;56269;51.738;21.652;2022-09-23T16:58:36;7.94;92.81
69162;DHT22;56269;51.738;21.652;2022-09-23T17:01:04;7.98;91.29
69162;DHT22;56269;51.738;21.652;2022-09-23T17:03:48;7.99;92.43
69162;DHT22;56269;51.738;21.652;2022-09-23T17:06:15;7.97;91.37
69162;DHT22;56269;51.738;21.652;2022-09-23T17:08:45;7.94;91.64
69162;DHT22;56269;51.738;21.652;2022-09-23T17:11:13;7.91;92.67
69162;DHT22;56269;51.738;21.652;2022-09-23T17:13:43;7.90;94.26
69162;DHT22;56269;51.738;21.652;2022-09-23T17:16:10;7.74;95.33
69162;DHT22;56269;51.738;21.652;2022-09-23T17:18:36;7.59;95.36
69162;DHT22;56269;51.738;21.652;2022-09-23T17:21:06;7.43;96.08
69162;DHT22;56269;51.738;21.652;2022-09-23T17:23:34;7.40;96.63
69162;DHT22;56269;51.738;21.652;2022-09-23T17:26:01;7.26;97.31
69162;DHT22;56269;51.738;21.652;2022-09-23T17:28:30;7.19;97.60
69162;DHT22;56269;51.738;21.652;2022-09-23T17:30:57;7.09;97.91
69162;DHT22;56269;51.738;21.652;2022-09-23T17:33:26;7.01;97.67
69162;DHT22;56269;51.738;21.652;2022-09-23T17:35:52;6.98;98.14
69162;DHT22;56269;51.738;21.652;2022-09-23T17:38:23;6.95;98.55
69162;DHT22;56269;51.738;21.652;2022-09-23T17:40:50;6.96;98.78
69162;DHT22;56269;51.738;21.652;2022-09-23T17:43:17;6.88;98.82
69162;DHT22;56269;51.738;21.652;2022-09-23T17:45:51;6.85;98.82
69162;DHT22;56269;51.738;21.652;2022-09-23T17:48:17;6.78;98.78
69162;DHT22;56269;51.738;21.652;2022-09-23T17:53:21;6.61;99.05
69162;DHT22;56269;51.738;21.652;2022-09-23T17:55:59;6.58;99.99
69162;DHT22;56269;51.738;21.652;2022-09-23T17:58:26;6.52;99.63
69162;DHT22;56269;51.738;21.652;2022-09-23T18:00:54;6.48;99.75
69162;DHT22;56269;51.738;21.652;2022-09-23T18:03:21;6.44;99.46
69162;DHT22;56269;51.738;21.652;2022-09-23T18:05:47;6.45;99.03
69162;DHT22;56269;51.738;21.652;2022-09-23T18:08:13;6.36;98.87
69162;DHT22;56269;51.738;21.652;2022-09-23T18:10:39;6.21;99.36